KACK/ACK METAR and TAF weather

Enter ICAO airport designator
Station Type Date Time Source
KACK METAR 2019/08/21 21:53 UTC NOAA

KACK 212153Z 18009KT 10SM CLR 23/21 A2993 RMK AO2 SLP135 T02280211 PNO


Station Type Date Time Source
KACK Decoded METAR 2019/08/21 21:53 UTC NOAA

Station name not available
Aug 21, 2019 - 05:53 PM EDT / 2019.08.21 2153 UTC
Wind: from the S (180 degrees) at 10 MPH (9 KT):0
Visibility: 10 mile(s):0
Sky conditions: clear
Temperature: 73.0 F (22.8 C)
Dew Point: 70.0 F (21.1 C)
Relative Humidity: 90%
Pressure (altimeter): 29.93 in. Hg (1013 hPa)
ob: KACK 212153Z 18009KT 10SM CLR 23/21 A2993 RMK AO2 SLP135 T02280211 PNO
cycle: 22

Station Type Date Time Source
KACK TAF 2019/08/21 21:48 UTC NOAA

TAF
AMD KACK 212044Z 2121/2218 19011KT P6SM BKN120
FM220300 21015KT P6SM VCSH BKN060
FM220600 22014KT P6SM VCSH BKN020
FM220900 21012KT 3SM BR VCSH BKN003
FM221300 21010KT P6SM BKN008
FM221500 22011KT P6SM BKN070

Example: see airport list